createdAt,value
2018-12-19T00:00:02.362Z,6.40
2018-12-19T00:00:37.326Z,6.40
2018-12-19T00:01:11.206Z,6.40
2018-12-19T00:01:45.202Z,6.40
2018-12-19T00:02:19.285Z,6.40
2018-12-19T00:02:53.099Z,6.40
2018-12-19T00:03:27.678Z,6.40
2018-12-19T00:04:01.725Z,6.40
2018-12-19T00:04:36.381Z,6.40
2018-12-19T00:05:10.553Z,6.40
2018-12-19T00:05:44.551Z,6.40
2018-12-19T00:06:19.427Z,6.50
2018-12-19T00:06:56.976Z,6.40
2018-12-19T00:07:25.830Z,6.40
2018-12-19T00:08:11.334Z,6.40
2018-12-19T00:08:45.315Z,6.40
2018-12-19T00:09:19.269Z,6.40
2018-12-19T00:09:53.366Z,6.40
2018-12-19T00:10:27.716Z,6.40
2018-12-19T00:11:01.860Z,6.40
2018-12-19T00:11:35.816Z,6.40
2018-12-19T00:12:10.239Z,6.40
2018-12-19T00:12:44.153Z,6.40
2018-12-19T00:13:19.745Z,6.40
2018-12-19T00:13:54.167Z,6.40
2018-12-19T00:14:28.228Z,6.40
2018-12-19T00:15:02.757Z,6.30
2018-12-19T00:15:37.026Z,6.30
2018-12-19T00:16:11.943Z,6.30
2018-12-19T00:16:46.412Z,6.40
2018-12-19T00:17:21.071Z,6.30
2018-12-19T00:17:56.614Z,6.30
2018-12-19T00:18:30.678Z,6.30
2018-12-19T00:19:04.567Z,6.30
2018-12-19T00:19:41.784Z,6.30
2018-12-19T00:20:15.561Z,6.30
2018-12-19T00:20:49.567Z,6.30
2018-12-19T00:21:23.625Z,6.30
2018-12-19T00:21:57.716Z,6.30
2018-12-19T00:22:31.552Z,6.30
2018-12-19T00:23:05.462Z,6.30
2018-12-19T00:23:40.144Z,6.30
2018-12-19T00:24:14.068Z,6.30
2018-12-19T00:24:48.635Z,6.30
2018-12-19T00:25:22.497Z,6.30
2018-12-19T00:25:56.400Z,6.30
2018-12-19T00:26:30.288Z,6.30
2018-12-19T00:27:05.566Z,6.30
2018-12-19T00:27:39.649Z,6.30
2018-12-19T00:28:13.619Z,6.30
2018-12-19T00:28:47.840Z,6.30
2018-12-19T00:29:22.561Z,6.30
2018-12-19T00:29:57.191Z,6.30
2018-12-19T00:30:31.288Z,6.30
2018-12-19T00:31:05.374Z,6.30
2018-12-19T00:31:39.689Z,6.30
2018-12-19T00:32:13.632Z,6.30
2018-12-19T00:32:47.700Z,6.30
2018-12-19T00:33:22.720Z,6.30
2018-12-19T00:33:56.614Z,6.30
2018-12-19T00:34:30.667Z,6.30
2018-12-19T00:35:05.608Z,6.30
2018-12-19T00:35:39.466Z,6.30
2018-12-19T00:36:13.479Z,6.30
2018-12-19T00:36:47.660Z,6.30
2018-12-19T00:37:21.514Z,6.30
2018-12-19T00:37:55.485Z,6.30
2018-12-19T00:38:29.595Z,6.30
2018-12-19T00:39:09.568Z,6.30
2018-12-19T00:39:42.298Z,6.30
2018-12-19T00:40:16.194Z,6.30
2018-12-19T00:40:50.216Z,6.30
2018-12-19T00:41:24.209Z,6.30
2018-12-19T00:41:58.698Z,6.30
2018-12-19T00:42:32.770Z,6.30
2018-12-19T00:43:06.819Z,6.30
2018-12-19T00:43:40.779Z,6.30
2018-12-19T00:44:15.524Z,6.30
2018-12-19T00:44:49.428Z,6.30
2018-12-19T00:45:23.747Z,6.30
2018-12-19T00:45:57.562Z,6.30
2018-12-19T00:46:31.469Z,6.30
2018-12-19T00:47:06.745Z,6.20
2018-12-19T00:47:40.782Z,6.20
2018-12-19T00:48:14.783Z,6.30
2018-12-19T00:48:48.560Z,6.30
2018-12-19T00:49:22.728Z,6.30
2018-12-19T00:49:56.983Z,6.30
2018-12-19T00:50:31.450Z,6.30
2018-12-19T00:51:05.267Z,6.20
2018-12-19T00:51:39.183Z,6.30
2018-12-19T00:52:13.183Z,6.30
2018-12-19T00:52:48.126Z,6.30
2018-12-19T00:53:22.102Z,6.30
2018-12-19T00:53:56.089Z,6.20
2018-12-19T00:54:30.101Z,6.20
2018-12-19T00:55:04.508Z,6.20
2018-12-19T00:55:38.935Z,6.20
2018-12-19T00:56:13.056Z,6.30
2018-12-19T00:56:47.220Z,6.20
2018-12-19T00:57:21.179Z,6.20
2018-12-19T00:57:59.034Z,6.20
2018-12-19T00:58:33.197Z,6.30
2018-12-19T00:59:07.104Z,6.20
2018-12-19T00:59:41.215Z,6.20
2018-12-19T01:00:15.196Z,6.20
2018-12-19T01:00:49.099Z,6.20
2018-12-19T01:01:23.323Z,6.20
2018-12-19T01:01:57.360Z,6.20
2018-12-19T01:02:32.095Z,6.20
2018-12-19T01:03:06.196Z,6.20
2018-12-19T01:03:40.525Z,6.20
2018-12-19T01:04:14.526Z,6.20
2018-12-19T01:04:48.558Z,6.20
2018-12-19T01:05:22.762Z,6.20
2018-12-19T01:05:57.086Z,6.20
2018-12-19T01:06:34.590Z,6.20
2018-12-19T01:07:08.725Z,6.20
2018-12-19T01:07:42.668Z,6.20
2018-12-19T01:08:17.075Z,6.20
2018-12-19T01:08:51.010Z,6.20
2018-12-19T01:09:24.862Z,6.20
2018-12-19T01:10:02.438Z,6.20
2018-12-19T01:10:37.514Z,6.20
2018-12-19T01:11:18.552Z,6.20
2018-12-19T01:11:54.059Z,6.20
2018-12-19T01:12:27.950Z,6.10
2018-12-19T01:13:03.119Z,6.20
2018-12-19T01:13:36.959Z,6.20
2018-12-19T01:14:10.982Z,6.20
2018-12-19T01:14:45.202Z,6.20
2018-12-19T01:15:19.175Z,6.20
2018-12-19T01:15:53.420Z,6.20
2018-12-19T01:16:27.305Z,6.20
2018-12-19T01:17:01.213Z,6.20
2018-12-19T01:17:35.246Z,6.20
2018-12-19T01:18:09.157Z,6.20
2018-12-19T01:18:42.850Z,6.20
2018-12-19T01:19:16.901Z,6.20
2018-12-19T01:19:51.187Z,6.20
2018-12-19T01:20:25.358Z,6.20
2018-12-19T01:20:59.287Z,6.20
2018-12-19T01:21:35.209Z,6.20
2018-12-19T01:22:09.192Z,6.20
2018-12-19T01:22:43.247Z,6.20
2018-12-19T01:23:17.393Z,6.30
2018-12-19T01:23:51.717Z,6.30
2018-12-19T01:24:26.733Z,6.20
2018-12-19T01:25:00.632Z,6.20
2018-12-19T01:25:34.997Z,6.30
2018-12-19T01:26:09.059Z,6.20
2018-12-19T01:26:44.819Z,6.30
2018-12-19T01:27:18.632Z,6.30
2018-12-19T01:27:52.496Z,6.30
2018-12-19T01:28:26.414Z,6.30
2018-12-19T01:29:00.630Z,6.30
2018-12-19T01:29:35.179Z,6.30
2018-12-19T01:30:09.244Z,6.20
2018-12-19T01:30:43.066Z,6.20
2018-12-19T01:31:18.267Z,6.20
2018-12-19T01:31:52.785Z,6.20
2018-12-19T01:32:26.721Z,6.20
2018-12-19T01:33:00.581Z,6.10
2018-12-19T01:33:34.523Z,6.10
2018-12-19T01:34:08.478Z,6.10
2018-12-19T01:34:42.301Z,6.10
2018-12-19T01:35:16.311Z,6.20
2018-12-19T01:35:50.142Z,6.20
2018-12-19T01:36:24.018Z,6.20
2018-12-19T01:36:58.209Z,6.20
2018-12-19T01:37:32.303Z,6.20
2018-12-19T01:38:06.165Z,6.20
2018-12-19T01:38:39.898Z,6.10
2018-12-19T01:39:13.805Z,6.10
2018-12-19T01:39:48.510Z,6.20
2018-12-19T01:40:22.373Z,6.20
2018-12-19T01:40:56.203Z,6.20
2018-12-19T01:41:30.097Z,6.20
2018-12-19T01:42:03.934Z,6.20
2018-12-19T01:42:38.062Z,6.20
2018-12-19T01:43:11.876Z,6.20
2018-12-19T01:43:45.889Z,6.20
2018-12-19T01:44:19.733Z,6.20
2018-12-19T01:44:53.675Z,6.20
2018-12-19T01:45:27.565Z,6.20
2018-12-19T01:46:01.950Z,6.20
2018-12-19T01:46:35.940Z,6.20
2018-12-19T01:47:09.816Z,6.20
2018-12-19T01:47:43.837Z,6.20
2018-12-19T01:48:17.553Z,6.20
2018-12-19T01:48:51.346Z,6.20
2018-12-19T01:49:25.232Z,6.10
2018-12-19T01:49:59.120Z,6.20
2018-12-19T01:50:32.945Z,6.10
2018-12-19T01:51:06.872Z,6.20
2018-12-19T01:51:40.677Z,6.20
2018-12-19T01:52:14.929Z,6.20
2018-12-19T01:52:48.907Z,6.20
2018-12-19T01:53:22.850Z,6.20
2018-12-19T01:53:56.780Z,6.20
2018-12-19T01:54:30.537Z,6.20
2018-12-19T01:55:04.717Z,6.20
2018-12-19T01:55:38.751Z,6.20
2018-12-19T01:56:12.677Z,6.20
2018-12-19T01:56:46.448Z,6.20
2018-12-19T01:57:20.292Z,6.20
2018-12-19T01:57:54.679Z,6.20
2018-12-19T01:58:31.549Z,6.20
2018-12-19T01:59:05.449Z,6.20
2018-12-19T01:59:39.503Z,6.20
2018-12-19T02:00:13.660Z,6.20
2018-12-19T02:00:47.576Z,6.20
2018-12-19T02:01:21.554Z,6.20
2018-12-19T02:01:55.674Z,6.20
2018-12-19T02:02:29.577Z,6.20
2018-12-19T02:03:03.787Z,6.20
2018-12-19T02:03:37.741Z,6.20
2018-12-19T02:04:12.187Z,6.20
2018-12-19T02:04:46.322Z,6.20
2018-12-19T02:05:20.078Z,6.20
2018-12-19T02:05:54.137Z,6.20
2018-12-19T02:06:28.957Z,6.20
2018-12-19T02:07:02.835Z,6.20
2018-12-19T02:07:36.824Z,6.30
2018-12-19T02:08:10.895Z,6.20
2018-12-19T02:08:44.924Z,6.30
2018-12-19T02:09:18.945Z,6.30
2018-12-19T02:09:52.778Z,6.30
2018-12-19T02:10:26.777Z,6.30
2018-12-19T02:11:00.762Z,6.30
2018-12-19T02:11:34.929Z,6.30
2018-12-19T02:12:08.750Z,6.30
2018-12-19T02:12:42.778Z,6.30
2018-12-19T02:13:16.766Z,6.30
2018-12-19T02:13:51.217Z,6.30
2018-12-19T02:14:25.166Z,6.30
2018-12-19T02:14:59.269Z,6.30
2018-12-19T02:15:33.697Z,6.30
2018-12-19T02:16:08.374Z,6.30
2018-12-19T02:16:42.514Z,6.30
2018-12-19T02:17:16.378Z,6.30
2018-12-19T02:17:50.134Z,6.40
2018-12-19T02:18:24.122Z,6.40
2018-12-19T02:18:57.970Z,6.40
2018-12-19T02:19:31.851Z,6.40
2018-12-19T02:20:05.824Z,6.40
2018-12-19T02:20:40.773Z,6.30
2018-12-19T02:21:15.213Z,6.40
2018-12-19T02:21:49.251Z,6.40
2018-12-19T02:22:23.095Z,6.40
2018-12-19T02:22:57.102Z,6.40
2018-12-19T02:23:31.004Z,6.40
2018-12-19T02:24:05.058Z,6.40
2018-12-19T02:24:40.421Z,6.40
2018-12-19T02:25:14.376Z,6.40
2018-12-19T02:25:48.306Z,6.40
2018-12-19T02:26:22.125Z,6.40
2018-12-19T02:26:56.089Z,6.40
2018-12-19T02:27:29.993Z,6.40
2018-12-19T02:28:04.250Z,6.40
2018-12-19T02:28:38.295Z,6.40
2018-12-19T02:29:12.155Z,6.40
2018-12-19T02:29:46.065Z,6.40
2018-12-19T02:30:20.205Z,6.40
2018-12-19T02:30:54.254Z,6.40
2018-12-19T02:31:28.254Z,6.40
2018-12-19T02:32:06.810Z,6.40
2018-12-19T02:32:40.851Z,6.40
2018-12-19T02:33:14.848Z,6.40
2018-12-19T02:33:48.982Z,6.40
2018-12-19T02:34:23.070Z,6.40
2018-12-19T02:34:57.169Z,6.50
2018-12-19T02:35:31.128Z,6.50
2018-12-19T02:36:05.085Z,6.40
2018-12-19T02:36:39.107Z,6.50
2018-12-19T02:37:12.914Z,6.50
2018-12-19T02:37:46.646Z,6.40
2018-12-19T02:38:20.657Z,6.40
2018-12-19T02:38:54.707Z,6.40
2018-12-19T02:39:35.931Z,6.40
2018-12-19T02:40:05.247Z,6.40
2018-12-19T02:40:39.174Z,6.50
2018-12-19T02:41:13.199Z,6.40
2018-12-19T02:41:47.290Z,6.40
2018-12-19T02:42:21.154Z,6.50
2018-12-19T02:42:55.070Z,6.40
2018-12-19T02:43:28.921Z,6.40
2018-12-19T02:44:03.664Z,6.40
2018-12-19T02:45:22.796Z,6.40
2018-12-19T02:45:57.334Z,6.30
2018-12-19T02:46:31.246Z,6.30
2018-12-19T02:47:05.111Z,6.30
2018-12-19T02:47:39.093Z,6.30
2018-12-19T02:48:13.026Z,6.30
2018-12-19T02:48:46.758Z,6.30
2018-12-19T02:49:20.892Z,6.30
2018-12-19T02:49:57.831Z,6.30
2018-12-19T02:50:31.639Z,6.30
2018-12-19T02:51:05.615Z,6.30
2018-12-19T02:51:40.140Z,6.30
2018-12-19T02:52:14.037Z,6.30
2018-12-19T02:52:47.724Z,6.30
2018-12-19T02:53:21.705Z,6.30
2018-12-19T02:53:55.478Z,6.30
2018-12-19T02:54:29.391Z,6.30
2018-12-19T02:55:04.477Z,6.30
2018-12-19T02:55:38.952Z,6.30
2018-12-19T02:56:12.814Z,6.30
2018-12-19T02:56:47.076Z,6.30
2018-12-19T02:57:20.875Z,6.30
2018-12-19T02:57:55.155Z,6.30
2018-12-19T02:58:28.923Z,6.30
2018-12-19T02:59:02.821Z,6.30
2018-12-19T02:59:36.553Z,6.30
2018-12-19T03:00:11.879Z,6.30
2018-12-19T03:00:45.749Z,6.30
2018-12-19T03:01:19.730Z,6.30
2018-12-19T03:01:53.460Z,6.30
2018-12-19T03:02:27.465Z,6.30
2018-12-19T03:03:01.272Z,6.30
2018-12-19T03:03:35.734Z,6.30
2018-12-19T03:04:09.733Z,6.30
2018-12-19T03:04:43.627Z,6.30
2018-12-19T03:05:18.243Z,6.30
2018-12-19T03:05:52.015Z,6.30
2018-12-19T03:06:25.869Z,6.30
2018-12-19T03:07:16.620Z,6.30
2018-12-19T03:07:50.635Z,6.30
2018-12-19T03:08:24.648Z,6.30
2018-12-19T03:08:58.347Z,6.30
2018-12-19T03:09:32.236Z,6.30
2018-12-19T03:10:06.385Z,6.30
2018-12-19T03:10:40.375Z,6.30
2018-12-19T03:11:14.331Z,6.20
2018-12-19T03:11:48.380Z,6.30
2018-12-19T03:12:22.294Z,6.30
2018-12-19T03:12:56.986Z,6.30
2018-12-19T03:13:31.038Z,6.20
2018-12-19T03:14:04.967Z,6.20
2018-12-19T03:14:38.905Z,6.20
2018-12-19T03:15:13.165Z,6.20
2018-12-19T03:15:47.861Z,6.20
2018-12-19T03:16:22.087Z,6.20
2018-12-19T03:16:56.253Z,6.20
2018-12-19T03:17:30.479Z,6.20
2018-12-19T03:18:04.555Z,6.20
2018-12-19T03:18:38.409Z,6.20
2018-12-19T03:19:12.407Z,6.20
2018-12-19T03:19:46.265Z,6.20
2018-12-19T03:20:20.275Z,6.30
2018-12-19T03:20:54.760Z,6.20
2018-12-19T03:21:28.554Z,6.20
2018-12-19T03:22:02.782Z,6.20
2018-12-19T03:22:37.299Z,6.20
2018-12-19T03:23:11.097Z,6.20
2018-12-19T03:23:44.989Z,6.20
2018-12-19T03:24:18.899Z,6.20
2018-12-19T03:24:52.678Z,6.20
2018-12-19T03:25:26.620Z,6.20
2018-12-19T03:26:00.454Z,6.20
2018-12-19T03:26:34.450Z,6.20
2018-12-19T03:27:08.380Z,6.20
2018-12-19T03:27:42.074Z,6.20
2018-12-19T03:28:15.930Z,6.20
2018-12-19T03:28:49.761Z,6.20
2018-12-19T03:29:23.696Z,6.20
2018-12-19T03:29:57.717Z,6.20
2018-12-19T03:30:31.626Z,6.20
2018-12-19T03:31:05.344Z,6.20
2018-12-19T03:31:39.815Z,6.20
2018-12-19T03:32:13.842Z,6.20
2018-12-19T03:32:47.749Z,6.20
2018-12-19T03:33:21.639Z,6.20
2018-12-19T03:33:55.598Z,6.10
2018-12-19T03:34:29.534Z,6.10
2018-12-19T03:35:04.021Z,6.10
2018-12-19T03:35:38.102Z,6.10
2018-12-19T03:36:11.923Z,6.10
2018-12-19T03:36:45.884Z,6.20
2018-12-19T03:37:20.282Z,6.10
2018-12-19T03:37:54.946Z,6.10
2018-12-19T03:38:28.866Z,6.10
2018-12-19T03:39:04.778Z,6.10
2018-12-19T03:39:38.693Z,6.10
2018-12-19T03:40:12.442Z,6.20
2018-12-19T03:40:46.459Z,6.10
2018-12-19T03:41:20.305Z,6.10
2018-12-19T03:41:54.859Z,6.10
2018-12-19T03:42:28.646Z,6.10
2018-12-19T03:43:02.803Z,6.10
2018-12-19T03:43:36.612Z,6.10
2018-12-19T03:44:10.349Z,6.10
2018-12-19T03:44:45.131Z,6.20
2018-12-19T03:45:20.050Z,6.10
2018-12-19T03:45:53.931Z,6.10
2018-12-19T03:47:57.397Z,6.20
2018-12-19T03:48:36.858Z,6.10
2018-12-19T03:49:11.315Z,6.20
2018-12-19T03:49:45.267Z,6.20
2018-12-19T03:50:19.201Z,6.10
2018-12-19T03:50:53.497Z,6.20
2018-12-19T03:51:34.214Z,6.20
2018-12-19T03:52:08.280Z,6.20
2018-12-19T03:52:42.261Z,6.20
2018-12-19T03:53:16.131Z,6.20
2018-12-19T03:53:50.086Z,6.20
2018-12-19T03:54:24.042Z,6.20
2018-12-19T03:54:57.907Z,6.20
2018-12-19T03:55:31.921Z,6.20
2018-12-19T03:56:06.348Z,6.20
2018-12-19T03:56:40.814Z,6.20
2018-12-19T03:57:14.728Z,6.20
2018-12-19T03:57:48.818Z,6.20
2018-12-19T03:58:22.681Z,6.20
2018-12-19T03:58:56.558Z,6.20
2018-12-19T03:59:30.885Z,6.20
2018-12-19T04:00:05.339Z,6.20
2018-12-19T04:00:39.067Z,6.20
2018-12-19T04:01:13.602Z,6.20
2018-12-19T04:01:48.409Z,6.20
2018-12-19T04:02:22.618Z,6.20
2018-12-19T04:02:56.449Z,6.20
2018-12-19T04:03:31.711Z,6.30
2018-12-19T04:04:06.430Z,6.20
2018-12-19T04:04:43.421Z,6.20
2018-12-19T04:05:17.196Z,6.20
2018-12-19T04:05:51.058Z,6.20
2018-12-19T04:06:25.035Z,6.20
2018-12-19T04:06:58.921Z,6.20
2018-12-19T04:07:32.829Z,6.20
2018-12-19T04:08:06.755Z,6.20
2018-12-19T04:08:40.759Z,6.20
2018-12-19T04:09:15.191Z,6.30
2018-12-19T04:09:49.021Z,6.20
2018-12-19T04:10:23.088Z,6.30
2018-12-19T04:11:00.047Z,6.30
2018-12-19T04:11:34.021Z,6.20
2018-12-19T04:12:07.938Z,6.20
2018-12-19T04:12:42.433Z,6.20
2018-12-19T04:13:16.198Z,6.20
2018-12-19T04:13:50.113Z,6.20
2018-12-19T04:14:24.063Z,6.20
2018-12-19T04:14:58.750Z,6.20
2018-12-19T04:15:32.883Z,6.20
2018-12-19T04:16:06.954Z,6.20
2018-12-19T04:16:41.470Z,6.20
2018-12-19T04:17:18.924Z,6.20
2018-12-19T04:17:52.972Z,6.20
2018-12-19T04:18:26.833Z,6.20
2018-12-19T04:19:00.721Z,6.20
2018-12-19T04:19:34.526Z,6.20
2018-12-19T04:20:08.576Z,6.20
2018-12-19T04:20:42.656Z,6.20
2018-12-19T04:21:16.399Z,6.20
2018-12-19T04:21:50.413Z,6.20
2018-12-19T04:22:24.274Z,6.30
2018-12-19T04:22:58.150Z,6.20
2018-12-19T04:23:31.978Z,6.30
2018-12-19T04:24:05.847Z,6.30
2018-12-19T04:24:39.650Z,6.30
2018-12-19T04:25:13.857Z,6.30
2018-12-19T04:25:47.699Z,6.30
2018-12-19T04:26:21.484Z,6.30
2018-12-19T04:26:55.480Z,6.30
2018-12-19T04:27:29.406Z,6.30
2018-12-19T04:28:03.509Z,6.30
2018-12-19T04:28:37.771Z,6.40
2018-12-19T04:29:11.623Z,6.40
2018-12-19T04:29:45.629Z,6.30
2018-12-19T04:30:19.637Z,6.40
2018-12-19T04:30:54.246Z,6.40
2018-12-19T04:31:30.279Z,6.40
2018-12-19T04:32:04.786Z,6.40
2018-12-19T04:32:38.997Z,6.30
2018-12-19T04:33:13.006Z,6.30
2018-12-19T04:33:48.015Z,6.30
2018-12-19T04:34:21.978Z,6.30
2018-12-19T04:34:55.720Z,6.30
2018-12-19T04:35:29.617Z,6.30
2018-12-19T04:36:04.554Z,6.30
2018-12-19T04:36:39.030Z,6.30
2018-12-19T04:37:12.982Z,6.40
2018-12-19T04:37:46.979Z,6.40
2018-12-19T04:38:21.066Z,6.40
2018-12-19T04:38:55.071Z,6.30
2018-12-19T04:39:28.986Z,6.40
2018-12-19T04:40:05.633Z,6.40
2018-12-19T04:40:39.179Z,6.40
2018-12-19T04:41:13.138Z,6.40
2018-12-19T04:41:46.986Z,6.40
2018-12-19T04:42:21.076Z,6.40
2018-12-19T04:42:54.915Z,6.40
2018-12-19T04:43:28.726Z,6.40
2018-12-19T04:44:02.929Z,6.40
2018-12-19T04:44:36.620Z,6.40
2018-12-19T04:45:11.156Z,6.40
2018-12-19T04:45:45.369Z,6.40
2018-12-19T04:46:19.241Z,6.40
2018-12-19T04:46:52.948Z,6.40
2018-12-19T04:47:26.862Z,6.40
2018-12-19T04:48:00.896Z,6.50
2018-12-19T04:48:34.714Z,6.40
2018-12-19T04:49:08.453Z,6.40
2018-12-19T04:49:42.577Z,6.40
2018-12-19T04:50:16.489Z,6.40
2018-12-19T04:50:50.241Z,6.40
2018-12-19T04:51:24.412Z,6.50
2018-12-19T04:51:58.327Z,6.50
2018-12-19T04:52:32.251Z,6.50
2018-12-19T04:53:05.994Z,6.40
2018-12-19T04:53:39.889Z,6.40
2018-12-19T04:54:13.748Z,6.50
2018-12-19T04:54:47.621Z,6.50
2018-12-19T04:55:21.518Z,6.50
2018-12-19T04:55:55.394Z,6.50
2018-12-19T04:56:29.307Z,6.50
2018-12-19T04:57:03.208Z,6.50
2018-12-19T04:57:37.218Z,6.50
2018-12-19T04:58:11.161Z,6.50
2018-12-19T04:58:45.250Z,6.50
2018-12-19T04:59:19.203Z,6.50
2018-12-19T04:59:52.875Z,6.50
2018-12-19T05:00:26.771Z,6.60
2018-12-19T05:01:00.720Z,6.50
2018-12-19T05:01:34.570Z,6.60
2018-12-19T05:02:08.347Z,6.60
2018-12-19T05:02:42.298Z,6.60
2018-12-19T05:03:16.213Z,6.60
2018-12-19T05:03:50.054Z,6.60
2018-12-19T05:04:23.855Z,6.60
2018-12-19T05:04:57.723Z,6.60
2018-12-19T05:05:31.578Z,6.60
2018-12-19T05:06:05.560Z,6.60
2018-12-19T05:06:39.716Z,6.60
2018-12-19T05:07:13.755Z,6.60
2018-12-19T05:07:48.833Z,6.60
2018-12-19T05:08:22.906Z,6.60
2018-12-19T05:08:56.700Z,6.60
2018-12-19T05:09:30.618Z,6.60
2018-12-19T05:10:12.113Z,6.60
2018-12-19T05:10:41.018Z,6.60
2018-12-19T05:11:15.215Z,6.60
2018-12-19T05:11:49.173Z,6.60
2018-12-19T05:12:23.181Z,6.60
2018-12-19T05:12:57.029Z,6.60
2018-12-19T05:13:30.983Z,6.60
2018-12-19T05:14:04.703Z,6.60
2018-12-19T05:14:38.963Z,6.60
2018-12-19T05:15:13.064Z,6.60
2018-12-19T05:15:47.141Z,6.60
2018-12-19T05:16:21.312Z,6.60
2018-12-19T05:16:55.177Z,6.60
2018-12-19T05:17:29.043Z,6.60
2018-12-19T05:18:02.959Z,6.60
2018-12-19T05:18:36.715Z,6.60
2018-12-19T05:19:10.763Z,6.60
2018-12-19T05:19:45.273Z,6.60
2018-12-19T05:20:19.265Z,6.60
2018-12-19T05:20:53.314Z,6.60
2018-12-19T05:21:27.082Z,6.60
2018-12-19T05:22:01.023Z,6.70
2018-12-19T05:22:34.897Z,6.70
2018-12-19T05:23:09.790Z,6.70
2018-12-19T05:23:43.727Z,6.70
2018-12-19T05:24:17.642Z,6.70
2018-12-19T05:24:51.620Z,6.70
2018-12-19T05:25:25.385Z,6.70
2018-12-19T05:25:59.378Z,6.70
2018-12-19T05:26:33.258Z,6.70
2018-12-19T05:27:07.395Z,6.70
2018-12-19T05:27:41.978Z,6.70
2018-12-19T05:28:15.842Z,6.70
2018-12-19T05:28:49.678Z,6.70
2018-12-19T05:29:23.762Z,6.70
2018-12-19T05:29:57.539Z,6.70
2018-12-19T05:30:31.418Z,6.70
2018-12-19T05:31:05.371Z,6.70
2018-12-19T05:31:39.286Z,6.70
2018-12-19T05:32:13.497Z,6.80
2018-12-19T05:32:47.726Z,6.70
2018-12-19T05:33:22.738Z,6.80
2018-12-19T05:33:56.693Z,6.80
2018-12-19T05:34:30.452Z,6.80
2018-12-19T05:35:05.365Z,6.80
2018-12-19T05:35:39.245Z,6.80
2018-12-19T05:36:13.149Z,6.80
2018-12-19T05:36:47.082Z,6.80
2018-12-19T05:37:21.087Z,6.80
2018-12-19T05:37:54.955Z,6.80
2018-12-19T05:38:29.057Z,6.80
2018-12-19T05:39:05.511Z,6.80
2018-12-19T05:39:39.418Z,6.80
2018-12-19T05:40:18.861Z,6.80
2018-12-19T05:40:49.222Z,6.80
2018-12-19T05:41:23.026Z,6.80
2018-12-19T05:41:56.875Z,6.80
2018-12-19T05:42:30.758Z,6.80
2018-12-19T05:43:04.637Z,6.80
2018-12-19T05:43:38.569Z,6.80
2018-12-19T05:44:12.536Z,6.80
2018-12-19T05:44:46.343Z,6.80
2018-12-19T05:45:20.624Z,6.90
2018-12-19T05:45:54.529Z,6.80
2018-12-19T05:46:28.384Z,6.80
2018-12-19T05:47:02.269Z,6.80
2018-12-19T05:47:36.192Z,6.80
2018-12-19T05:48:10.055Z,6.80
2018-12-19T05:48:43.916Z,6.90
2018-12-19T05:49:18.717Z,6.90
2018-12-19T05:49:52.876Z,6.80
2018-12-19T05:50:28.417Z,6.90
2018-12-19T05:51:02.190Z,6.90
2018-12-19T05:51:35.983Z,6.90
2018-12-19T05:52:09.729Z,6.90
2018-12-19T05:52:43.546Z,6.90
2018-12-19T05:53:17.241Z,6.90
2018-12-19T05:53:51.114Z,6.90
2018-12-19T05:54:24.968Z,6.90
2018-12-19T05:54:58.949Z,6.90
2018-12-19T05:55:32.804Z,6.90
2018-12-19T05:56:06.618Z,6.90
2018-12-19T05:56:40.404Z,6.90
2018-12-19T05:57:15.193Z,6.90
2018-12-19T05:57:49.173Z,6.90
2018-12-19T05:58:23.548Z,7.00
2018-12-19T05:58:57.562Z,6.90
2018-12-19T05:59:31.451Z,7.00
2018-12-19T06:00:07.079Z,6.90
2018-12-19T06:00:41.192Z,7.00
2018-12-19T06:01:15.102Z,7.00
2018-12-19T06:01:48.963Z,7.00
2018-12-19T06:02:22.824Z,6.90
2018-12-19T06:02:56.762Z,6.90
2018-12-19T06:03:30.922Z,7.00
2018-12-19T06:04:04.657Z,7.00
2018-12-19T06:04:38.595Z,6.90
2018-12-19T06:05:12.348Z,6.90
2018-12-19T06:05:46.284Z,7.00
2018-12-19T06:06:22.907Z,7.00
2018-12-19T06:06:56.748Z,7.00
2018-12-19T06:07:30.696Z,6.90
2018-12-19T06:08:04.454Z,7.00
2018-12-19T06:08:38.822Z,7.00
2018-12-19T06:09:12.700Z,7.00
2018-12-19T06:09:46.481Z,6.90
2018-12-19T06:10:26.196Z,6.90
2018-12-19T06:10:56.357Z,6.90
2018-12-19T06:11:30.125Z,6.90
2018-12-19T06:12:04.281Z,6.90
2018-12-19T06:12:38.266Z,6.90
2018-12-19T06:13:12.511Z,6.90
2018-12-19T06:13:46.176Z,6.90
2018-12-19T06:14:20.153Z,6.90
2018-12-19T06:14:53.945Z,6.90
2018-12-19T06:15:27.903Z,6.90
2018-12-19T06:16:01.815Z,6.90
2018-12-19T06:16:35.644Z,6.90
2018-12-19T06:17:09.554Z,6.90
2018-12-19T06:17:43.648Z,6.90
2018-12-19T06:18:17.447Z,6.90
2018-12-19T06:18:51.261Z,6.90
2018-12-19T06:19:25.054Z,6.90
2018-12-19T06:19:59.198Z,6.90
2018-12-19T06:20:33.972Z,6.90
2018-12-19T06:21:07.967Z,6.90
2018-12-19T06:21:42.000Z,6.90
2018-12-19T06:22:15.794Z,6.90
2018-12-19T06:22:49.996Z,6.90
2018-12-19T06:23:24.538Z,6.90
2018-12-19T06:23:58.346Z,6.90
2018-12-19T06:24:32.334Z,6.90
2018-12-19T06:25:06.246Z,6.90
2018-12-19T06:25:40.647Z,6.90
2018-12-19T06:26:14.447Z,6.90
2018-12-19T06:26:48.344Z,6.80
2018-12-19T06:27:22.092Z,6.90
2018-12-19T06:27:56.185Z,6.90
2018-12-19T06:28:30.158Z,6.90
2018-12-19T06:29:04.050Z,6.80
2018-12-19T06:29:37.814Z,6.80
2018-12-19T06:30:11.773Z,6.90
2018-12-19T06:30:45.534Z,6.80
2018-12-19T06:31:19.371Z,6.90
2018-12-19T06:31:53.286Z,6.90
2018-12-19T06:32:27.055Z,6.90
2018-12-19T06:33:02.605Z,6.90
2018-12-19T06:33:36.984Z,6.90
2018-12-19T06:34:10.987Z,6.90
2018-12-19T06:34:45.093Z,6.90
2018-12-19T06:35:19.050Z,6.90
2018-12-19T06:35:52.943Z,6.90
2018-12-19T06:36:26.833Z,6.90
2018-12-19T06:37:01.026Z,6.90
2018-12-19T06:37:35.029Z,6.90
2018-12-19T06:38:09.202Z,6.90
2018-12-19T06:38:43.057Z,6.90
2018-12-19T06:39:17.086Z,6.90
2018-12-19T06:39:50.932Z,6.90
2018-12-19T06:40:24.892Z,6.90
2018-12-19T06:40:58.931Z,6.90
2018-12-19T06:41:32.906Z,6.90
2018-12-19T06:42:06.628Z,6.90
2018-12-19T06:42:40.516Z,6.90
2018-12-19T06:43:14.354Z,6.90
2018-12-19T06:43:48.118Z,6.90
2018-12-19T06:44:22.095Z,6.90
2018-12-19T06:44:55.927Z,6.90
2018-12-19T06:45:29.674Z,6.90
2018-12-19T06:46:03.654Z,6.90
2018-12-19T06:46:37.810Z,6.90
2018-12-19T06:47:11.689Z,7.00
2018-12-19T06:47:45.490Z,6.90
2018-12-19T06:48:19.337Z,6.90
2018-12-19T06:48:53.128Z,6.90
2018-12-19T06:49:26.962Z,6.90
2018-12-19T06:50:00.721Z,6.90
2018-12-19T06:50:34.555Z,7.00
2018-12-19T06:51:08.259Z,6.90
2018-12-19T06:51:42.104Z,7.00
2018-12-19T06:52:16.070Z,6.90
2018-12-19T06:52:49.759Z,7.00
2018-12-19T06:53:23.599Z,7.00
2018-12-19T06:53:57.479Z,7.00
2018-12-19T06:54:32.464Z,7.00
2018-12-19T06:55:06.287Z,7.00
2018-12-19T06:55:40.190Z,7.00
2018-12-19T06:56:14.335Z,7.00
2018-12-19T06:56:48.014Z,7.00
2018-12-19T06:57:22.165Z,7.00
2018-12-19T06:57:55.988Z,7.00
2018-12-19T06:58:29.938Z,7.00
2018-12-19T06:59:03.792Z,7.00
2018-12-19T06:59:37.498Z,7.00
2018-12-19T07:00:11.375Z,7.00
2018-12-19T07:00:45.276Z,7.00
2018-12-19T07:01:19.271Z,7.00
2018-12-19T07:01:53.247Z,7.00
2018-12-19T07:02:27.196Z,7.00
2018-12-19T07:03:00.965Z,7.00
2018-12-19T07:03:34.828Z,7.00
2018-12-19T07:04:08.857Z,7.10
2018-12-19T07:04:42.790Z,7.10
2018-12-19T07:05:16.639Z,7.10
2018-12-19T07:05:50.558Z,7.10
2018-12-19T07:06:24.509Z,7.10
2018-12-19T07:06:58.321Z,7.10
2018-12-19T07:07:32.194Z,7.10
2018-12-19T07:08:06.018Z,7.10
2018-12-19T07:08:41.404Z,7.20
2018-12-19T07:09:15.790Z,7.20
2018-12-19T07:09:49.650Z,7.10
2018-12-19T07:10:23.643Z,7.20
2018-12-19T07:10:57.470Z,7.20
2018-12-19T07:11:31.285Z,7.20
2018-12-19T07:12:05.087Z,7.20
2018-12-19T07:12:39.028Z,7.20
2018-12-19T07:13:12.890Z,7.20
2018-12-19T07:13:46.610Z,7.20
2018-12-19T07:14:20.321Z,7.20
2018-12-19T07:14:54.230Z,7.20
2018-12-19T07:15:27.931Z,7.30
2018-12-19T07:16:01.631Z,7.30
2018-12-19T07:16:35.676Z,7.30
2018-12-19T07:17:09.436Z,7.30
2018-12-19T07:17:43.674Z,7.30
2018-12-19T07:18:17.387Z,7.30
2018-12-19T07:18:51.197Z,7.30
2018-12-19T07:19:25.082Z,7.30
2018-12-19T07:19:58.875Z,7.30
2018-12-19T07:20:32.725Z,7.30
2018-12-19T07:21:06.533Z,7.30
2018-12-19T07:21:40.318Z,7.30
2018-12-19T07:22:14.386Z,7.30
2018-12-19T07:22:48.057Z,7.30
2018-12-19T07:23:21.980Z,7.30
2018-12-19T07:23:55.738Z,7.30
2018-12-19T07:24:29.643Z,7.30
2018-12-19T07:25:03.855Z,7.30
2018-12-19T07:25:37.570Z,7.30
2018-12-19T07:26:11.429Z,7.40
2018-12-19T07:26:45.139Z,7.40
2018-12-19T07:27:19.401Z,7.40
2018-12-19T07:27:53.319Z,7.40
2018-12-19T07:28:30.381Z,7.40
2018-12-19T07:29:04.286Z,7.40
2018-12-19T07:29:38.041Z,7.40
2018-12-19T07:30:11.926Z,7.40
2018-12-19T07:30:45.558Z,7.40
2018-12-19T07:31:19.496Z,7.40
2018-12-19T07:31:53.502Z,7.40
2018-12-19T07:32:27.416Z,7.50
2018-12-19T07:33:01.290Z,7.40
2018-12-19T07:33:35.103Z,7.50
2018-12-19T07:34:09.134Z,7.50
2018-12-19T07:34:44.327Z,7.50
2018-12-19T07:35:18.401Z,7.50
2018-12-19T07:35:52.178Z,7.40
2018-12-19T07:36:26.108Z,7.50
2018-12-19T07:37:00.103Z,7.50